createdAt,value
2022-08-24T00:01:07.694Z,30.73
2022-08-24T00:03:37.982Z,31.90
2022-08-24T00:06:09.147Z,31.17
2022-08-24T00:08:39.273Z,30.77
2022-08-24T00:11:10.416Z,29.87
2022-08-24T00:13:39.769Z,29.97
2022-08-24T00:16:10.126Z,32.50
2022-08-24T00:18:39.614Z,31.33
2022-08-24T00:21:09.425Z,31.37
2022-08-24T00:23:38.460Z,30.30
2022-08-24T00:26:09.640Z,28.00
2022-08-24T00:28:38.785Z,25.80
2022-08-24T00:31:08.777Z,24.00
2022-08-24T00:33:37.874Z,23.30
2022-08-24T00:36:08.362Z,22.03
2022-08-24T00:38:38.079Z,22.60
2022-08-24T00:41:09.013Z,22.27
2022-08-24T00:43:38.342Z,22.20
2022-08-24T00:46:16.002Z,24.40
2022-08-24T00:48:53.321Z,25.00
2022-08-24T00:51:27.702Z,26.70
2022-08-24T00:54:18.591Z,29.00
2022-08-24T00:56:53.354Z,30.37
2022-08-24T00:59:29.219Z,31.47
2022-08-24T01:02:15.319Z,30.27
2022-08-24T01:04:51.084Z,30.00
2022-08-24T01:07:21.056Z,28.40
2022-08-24T01:09:50.348Z,29.07
2022-08-24T01:12:20.998Z,28.57
2022-08-24T01:14:50.655Z,27.87
2022-08-24T01:17:38.895Z,27.00
2022-08-24T01:20:11.712Z,29.57
2022-08-24T01:22:53.791Z,27.50
2022-08-24T01:25:26.618Z,26.70
2022-08-24T01:28:17.483Z,27.03
2022-08-24T01:30:54.658Z,28.07
2022-08-24T01:33:29.572Z,29.73
2022-08-24T01:36:02.525Z,28.23
2022-08-24T01:38:32.789Z,27.77
2022-08-24T01:41:05.613Z,29.47
2022-08-24T01:43:37.016Z,31.13
2022-08-24T01:46:09.384Z,32.00
2022-08-24T01:48:38.768Z,30.00
2022-08-24T01:51:08.125Z,28.50
2022-08-24T01:53:37.719Z,27.80
2022-08-24T01:56:09.123Z,27.40
2022-08-24T01:58:38.237Z,27.43
2022-08-24T02:01:07.619Z,26.87
2022-08-24T02:03:36.678Z,27.43
2022-08-24T02:06:05.856Z,28.07
2022-08-24T02:08:36.460Z,30.97
2022-08-24T02:11:08.839Z,29.40
2022-08-24T02:13:38.497Z,28.83
2022-08-24T02:16:08.142Z,27.10
2022-08-24T02:18:39.487Z,28.83
2022-08-24T02:21:09.191Z,28.60
2022-08-24T02:23:38.658Z,29.90
2022-08-24T02:26:11.032Z,27.93
2022-08-24T02:28:59.383Z,28.07
2022-08-24T02:31:34.308Z,27.90
2022-08-24T02:34:03.615Z,31.17
2022-08-24T02:36:32.730Z,31.50
2022-08-24T02:39:02.839Z,27.83
2022-08-24T02:41:34.834Z,28.40
2022-08-24T02:44:04.602Z,26.93
2022-08-24T02:46:35.780Z,27.93
2022-08-24T02:49:11.871Z,28.93
2022-08-24T02:51:47.081Z,27.20
2022-08-24T02:54:21.397Z,29.20
2022-08-24T02:57:10.185Z,26.90
2022-08-24T02:59:40.031Z,28.30
2022-08-24T03:02:09.241Z,29.10
2022-08-24T03:04:38.213Z,28.47
2022-08-24T03:07:07.497Z,27.40
2022-08-24T03:09:36.428Z,27.27
2022-08-24T03:12:06.251Z,28.97
2022-08-24T03:14:37.379Z,29.67
2022-08-24T03:17:07.001Z,29.83
2022-08-24T03:19:35.971Z,30.23
2022-08-24T03:22:05.168Z,29.23
2022-08-24T03:24:34.202Z,30.27
2022-08-24T03:27:04.557Z,33.03
2022-08-24T03:29:35.327Z,32.67
2022-08-24T03:32:08.569Z,35.60
2022-08-24T03:34:38.148Z,37.60
2022-08-24T03:37:08.612Z,36.10
2022-08-24T03:39:37.664Z,35.70
2022-08-24T03:42:07.633Z,35.07
2022-08-24T03:44:37.411Z,35.93
2022-08-24T03:47:08.690Z,34.67
2022-08-24T03:49:38.373Z,30.80
2022-08-24T03:52:07.747Z,29.53
2022-08-24T03:54:36.740Z,28.13
2022-08-24T03:57:06.179Z,27.40
2022-08-24T03:59:37.731Z,27.20
2022-08-24T04:02:17.318Z,26.50
2022-08-24T04:04:46.525Z,27.03
2022-08-24T04:07:16.740Z,28.47
2022-08-24T04:09:45.750Z,28.23
2022-08-24T04:12:14.768Z,27.40
2022-08-24T04:14:44.669Z,26.27
2022-08-24T04:17:19.173Z,27.30
2022-08-24T04:19:58.853Z,27.83
2022-08-24T04:22:37.880Z,27.53
2022-08-24T04:25:09.623Z,26.60
2022-08-24T04:27:41.358Z,26.27
2022-08-24T04:30:14.389Z,26.40
2022-08-24T04:33:11.834Z,27.17
2022-08-24T04:35:42.920Z,26.77
2022-08-24T04:38:12.909Z,26.87
2022-08-24T04:40:49.284Z,27.53
2022-08-24T04:43:20.089Z,26.87
2022-08-24T04:45:51.235Z,28.70
2022-08-24T04:48:23.752Z,30.60
2022-08-24T04:50:54.069Z,29.53
2022-08-24T04:53:23.420Z,29.43
2022-08-24T04:55:53.492Z,29.07
2022-08-24T04:58:22.593Z,28.57
2022-08-24T05:00:51.567Z,31.00
2022-08-24T05:03:20.748Z,28.70
2022-08-24T05:05:53.149Z,29.83
2022-08-24T05:08:41.249Z,31.27
2022-08-24T05:11:10.775Z,32.50
2022-08-24T05:13:40.214Z,32.80
2022-08-24T05:16:11.917Z,32.37
2022-08-24T05:18:42.175Z,31.00
2022-08-24T05:21:18.011Z,31.10
2022-08-24T05:23:48.694Z,29.93
2022-08-24T05:26:19.828Z,30.70
2022-08-24T05:28:49.201Z,30.57
2022-08-24T05:31:19.907Z,31.47
2022-08-24T05:33:49.827Z,31.40
2022-08-24T05:36:23.420Z,36.43
2022-08-24T05:38:54.931Z,36.27
2022-08-24T05:41:24.074Z,36.73
2022-08-24T05:44:00.570Z,38.17
2022-08-24T05:46:31.913Z,40.63
2022-08-24T05:49:01.757Z,36.73
2022-08-24T05:51:36.989Z,38.30
2022-08-24T05:54:09.541Z,41.60
2022-08-24T05:56:52.881Z,46.27
2022-08-24T05:59:22.888Z,49.27
2022-08-24T08:34:05.654Z,23.93
2022-08-24T08:36:35.241Z,25.57
2022-08-24T08:39:05.340Z,26.37
2022-08-24T08:41:58.862Z,26.77
2022-08-24T08:44:44.007Z,26.03
2022-08-24T08:47:25.550Z,24.83
2022-08-24T08:50:20.239Z,24.00
2022-08-24T08:53:19.185Z,24.97
2022-08-24T08:55:59.422Z,27.67
2022-08-24T08:58:57.333Z,24.63
2022-08-24T09:01:46.812Z,23.03
2022-08-24T17:43:25.748Z,20.93
2022-08-24T17:45:54.899Z,55.27
2022-08-24T17:48:28.959Z,71.43
2022-08-24T17:50:59.443Z,37.87
2022-08-24T17:53:47.619Z,12.27
2022-08-24T17:56:17.885Z,11.53
2022-08-24T18:31:54.915Z,27.47
2022-08-24T18:34:24.427Z,22.37
2022-08-24T18:36:54.155Z,22.40
2022-08-24T18:39:24.727Z,43.97
2022-08-24T18:41:55.081Z,17.67
2022-08-24T18:44:29.576Z,18.37
2022-08-24T18:47:00.734Z,13.37
2022-08-24T18:49:29.969Z,22.57
2022-08-24T18:51:59.927Z,39.97
2022-08-24T18:54:36.782Z,41.53
2022-08-24T18:57:07.174Z,17.43
2022-08-24T18:59:40.921Z,7.00
2022-08-24T19:02:33.645Z,6.60
2022-08-24T19:05:06.807Z,6.60
2022-08-24T19:07:37.388Z,7.23
2022-08-24T19:10:12.010Z,8.27
2022-08-24T19:12:46.764Z,7.87
2022-08-24T19:15:32.618Z,7.93
2022-08-24T19:18:06.839Z,8.50
2022-08-24T19:20:36.169Z,8.43
2022-08-24T19:23:10.148Z,8.97
2022-08-24T19:25:47.153Z,9.10
2022-08-24T19:28:16.326Z,8.17
2022-08-24T19:30:47.096Z,8.40
2022-08-24T19:33:26.968Z,7.77
2022-08-24T19:36:14.827Z,8.60
2022-08-24T19:38:44.096Z,8.20
2022-08-24T19:41:16.779Z,8.50
2022-08-24T19:44:07.843Z,18.23
2022-08-24T19:46:36.950Z,32.87
2022-08-24T19:49:06.441Z,49.57
2022-08-24T19:51:55.669Z,34.20
2022-08-24T19:54:24.849Z,51.27
2022-08-24T19:56:55.541Z,32.87
2022-08-24T19:59:29.059Z,16.73
2022-08-24T20:01:58.174Z,12.70
2022-08-24T20:04:27.110Z,9.57
2022-08-24T20:06:56.452Z,7.70
2022-08-24T20:09:25.664Z,7.03
2022-08-24T20:11:56.367Z,7.10
2022-08-24T20:14:25.971Z,7.40
2022-08-24T20:16:54.969Z,14.97
2022-08-24T20:19:24.342Z,16.80
2022-08-24T20:21:53.277Z,19.10
2022-08-24T20:24:23.435Z,12.40
2022-08-24T20:26:52.741Z,11.03
2022-08-24T20:29:23.216Z,8.47
2022-08-24T20:31:56.124Z,8.00
2022-08-24T20:34:25.186Z,6.93
2022-08-24T20:36:54.426Z,6.80
2022-08-24T20:39:27.422Z,6.90
2022-08-24T20:41:57.476Z,7.00
2022-08-24T20:44:28.592Z,6.60
2022-08-24T20:46:57.862Z,6.37
2022-08-24T20:49:28.659Z,6.80
2022-08-24T20:51:58.390Z,6.20
2022-08-24T20:54:27.571Z,5.73
2022-08-24T20:56:56.451Z,5.77
2022-08-24T20:59:27.326Z,6.10
2022-08-24T21:01:56.779Z,6.00
2022-08-24T21:04:25.538Z,5.57
2022-08-24T21:06:58.287Z,5.73
2022-08-24T21:09:27.127Z,9.63
2022-08-24T21:11:56.249Z,10.50
2022-08-24T21:14:26.625Z,14.77
2022-08-24T21:16:57.532Z,27.53
2022-08-24T21:19:26.590Z,29.33
2022-08-24T21:21:55.612Z,25.60
2022-08-24T21:24:27.152Z,24.07
2022-08-24T21:26:56.634Z,33.67
2022-08-24T21:29:27.276Z,43.10
2022-08-24T21:32:13.379Z,32.67
2022-08-24T21:35:00.981Z,28.05
2022-08-24T21:37:29.970Z,22.07
2022-08-24T21:39:59.548Z,13.23
2022-08-24T21:42:28.649Z,11.43
2022-08-24T21:45:01.262Z,24.27
2022-08-24T21:47:49.954Z,41.13
2022-08-24T21:50:20.032Z,38.33
2022-08-24T21:52:54.986Z,26.33
2022-08-24T21:55:23.899Z,26.20
2022-08-24T21:57:53.060Z,30.37
2022-08-24T22:00:24.506Z,15.00
2022-08-24T22:02:53.635Z,8.97
2022-08-24T22:05:22.691Z,9.20
2022-08-24T22:07:51.606Z,9.00
2022-08-24T22:10:20.626Z,11.10
2022-08-24T22:12:49.963Z,12.73
2022-08-24T22:15:23.921Z,14.10
2022-08-24T22:17:53.175Z,15.53
2022-08-24T22:20:23.275Z,16.13
2022-08-24T22:22:52.926Z,17.07
2022-08-24T22:25:21.852Z,17.47
2022-08-24T22:27:50.859Z,17.63
2022-08-24T22:30:20.361Z,19.63
2022-08-24T22:32:51.028Z,21.53
2022-08-24T22:35:20.244Z,21.27
2022-08-24T22:37:49.076Z,22.03
2022-08-24T22:40:19.143Z,20.73
2022-08-24T22:42:48.267Z,21.07
2022-08-24T22:45:17.198Z,23.73
2022-08-24T22:47:46.115Z,24.03
2022-08-24T22:50:16.862Z,25.57
2022-08-24T22:52:45.969Z,31.73
2022-08-24T22:55:14.897Z,32.87
2022-08-24T22:57:43.889Z,31.03
2022-08-24T23:00:15.132Z,24.20
2022-08-24T23:02:46.069Z,22.30
2022-08-24T23:05:16.364Z,19.23
2022-08-24T23:07:45.351Z,16.87
2022-08-24T23:10:15.151Z,14.37
2022-08-24T23:12:44.115Z,12.63
2022-08-24T23:15:13.289Z,11.80
2022-08-24T23:17:42.974Z,11.77
2022-08-24T23:20:11.731Z,12.20
2022-08-24T23:22:42.557Z,12.37
2022-08-24T23:25:14.102Z,12.47
